createdAt,value
2023-04-02T00:00:48.569Z,0.00
2023-04-02T00:01:48.708Z,0.00
2023-04-02T00:02:48.735Z,0.00
2023-04-02T00:03:48.906Z,0.00
2023-04-02T00:04:48.907Z,0.00
2023-04-02T00:05:49.034Z,0.00
2023-04-02T00:06:49.187Z,0.00
2023-04-02T00:07:49.241Z,0.00
2023-04-02T00:08:49.398Z,0.00
2023-04-02T00:09:49.486Z,0.00
2023-04-02T00:10:49.594Z,0.00
2023-04-02T00:11:49.707Z,0.00
2023-04-02T00:12:49.863Z,0.00
2023-04-02T00:13:49.964Z,0.00
2023-04-02T00:14:50.264Z,0.00
2023-04-02T00:15:50.205Z,0.00
2023-04-02T00:16:50.313Z,0.00
2023-04-02T00:17:50.427Z,0.00
2023-04-02T00:18:50.515Z,0.00
2023-04-02T00:19:50.812Z,0.00
2023-04-02T00:20:50.745Z,0.00
2023-04-02T00:21:50.939Z,0.00
2023-04-02T00:22:50.974Z,0.00
2023-04-02T00:23:51.080Z,0.00
2023-04-02T00:24:51.311Z,0.00
2023-04-02T00:25:51.457Z,0.00
2023-04-02T00:26:51.429Z,0.00
2023-04-02T00:27:51.602Z,0.00
2023-04-02T00:28:51.680Z,0.00
2023-04-02T00:29:51.810Z,0.00
2023-04-02T00:30:51.914Z,0.00
2023-04-02T00:31:52.009Z,0.00
2023-04-02T00:32:52.418Z,0.00
2023-04-02T00:33:52.258Z,0.00
2023-04-02T00:34:52.413Z,0.00
2023-04-02T00:35:52.518Z,0.00
2023-04-02T00:36:52.586Z,0.00
2023-04-02T00:37:52.716Z,0.00
2023-04-02T00:38:52.774Z,0.00
2023-04-02T00:39:52.899Z,0.00
2023-04-02T00:40:52.997Z,0.00
2023-04-02T00:41:53.813Z,0.00
2023-04-02T00:42:53.262Z,0.00
2023-04-02T00:43:53.374Z,0.00
2023-04-02T00:44:53.544Z,0.00
2023-04-02T00:45:53.612Z,0.00
2023-04-02T00:46:53.701Z,0.00
2023-04-02T00:47:53.839Z,0.00
2023-04-02T00:48:54.015Z,0.00
2023-04-02T00:49:54.040Z,0.00
2023-04-02T00:50:54.362Z,0.00
2023-04-02T00:51:54.295Z,0.00
2023-04-02T00:52:54.454Z,0.00
2023-04-02T00:53:54.462Z,0.00
2023-04-02T00:54:54.580Z,0.00
2023-04-02T00:55:54.765Z,0.00
2023-04-02T00:56:54.864Z,0.00
2023-04-02T00:57:54.916Z,0.00
2023-04-02T00:58:55.050Z,0.00
2023-04-02T00:59:55.173Z,0.00
2023-04-02T01:00:55.388Z,0.00
2023-04-02T01:01:55.401Z,0.00
2023-04-02T01:02:55.543Z,0.00
2023-04-02T01:03:55.692Z,0.00
2023-04-02T01:04:55.723Z,0.00
2023-04-02T01:05:55.866Z,0.00
2023-04-02T01:06:55.920Z,0.00
2023-04-02T01:07:56.039Z,0.00
2023-04-02T01:08:56.135Z,0.00
2023-04-02T01:09:56.292Z,0.00
2023-04-02T01:10:56.526Z,0.00
2023-04-02T01:11:56.509Z,0.00
2023-04-02T01:12:56.608Z,0.00
2023-04-02T01:13:56.739Z,0.00
2023-04-02T01:14:56.846Z,0.00
2023-04-02T01:15:57.024Z,0.00
2023-04-02T01:16:57.255Z,0.00
2023-04-02T01:17:57.237Z,0.00
2023-04-02T01:18:57.344Z,0.00
2023-04-02T01:19:57.394Z,0.00
2023-04-02T01:20:57.518Z,0.00
2023-04-02T01:21:57.723Z,0.00
2023-04-02T01:22:57.744Z,0.00
2023-04-02T01:23:57.873Z,0.00
2023-04-02T01:24:57.956Z,0.00
2023-04-02T01:25:58.095Z,0.00
2023-04-02T01:26:58.211Z,0.00
2023-04-02T01:27:58.395Z,0.00
2023-04-02T01:28:58.492Z,0.00
2023-04-02T01:29:58.592Z,0.00
2023-04-02T01:30:58.710Z,0.00
2023-04-02T01:31:58.824Z,0.00
2023-04-02T01:32:59.001Z,0.00
2023-04-02T01:33:59.010Z,0.00
2023-04-02T01:34:59.159Z,0.00
2023-04-02T01:35:59.318Z,0.00
2023-04-02T01:36:59.383Z,0.00
2023-04-02T01:37:59.463Z,0.00
2023-04-02T01:38:59.575Z,0.00
2023-04-02T01:39:59.728Z,0.00
2023-04-02T01:40:59.854Z,0.00
2023-04-02T01:42:00.011Z,0.00
2023-04-02T01:43:00.047Z,0.00
2023-04-02T01:44:00.258Z,0.00
2023-04-02T01:45:00.295Z,0.00
2023-04-02T01:46:00.371Z,0.00
2023-04-02T01:47:00.466Z,0.00
2023-04-02T01:48:00.605Z,0.00
2023-04-02T01:49:00.700Z,0.00
2023-04-02T01:50:00.828Z,0.00
2023-04-02T01:51:00.982Z,0.00
2023-04-02T01:52:01.039Z,0.00
2023-04-02T01:53:01.189Z,0.00
2023-04-02T01:54:01.263Z,0.00
2023-04-02T01:55:01.385Z,0.00
2023-04-02T01:56:01.527Z,0.00
2023-04-02T01:57:01.621Z,0.00
2023-04-02T01:58:01.735Z,0.00
2023-04-02T01:59:01.834Z,0.00
2023-04-02T02:00:01.982Z,0.00
2023-04-02T02:01:02.099Z,0.00
2023-04-02T02:02:02.330Z,0.00
2023-04-02T02:03:02.325Z,0.00
2023-04-02T02:04:02.390Z,0.00
2023-04-02T02:05:02.514Z,0.00
2023-04-02T02:06:02.588Z,0.00
2023-04-02T02:07:02.728Z,0.00
2023-04-02T02:08:02.894Z,0.00
2023-04-02T02:09:02.953Z,0.00
2023-04-02T02:10:03.079Z,0.00
2023-04-02T02:11:03.217Z,0.00
2023-04-02T02:12:03.363Z,0.00
2023-04-02T02:13:03.392Z,0.00
2023-04-02T02:14:03.530Z,0.00
2023-04-02T02:15:03.644Z,0.00
2023-04-02T02:16:03.833Z,0.00
2023-04-02T02:17:03.894Z,0.00
2023-04-02T02:18:04.604Z,0.00
2023-04-02T02:19:04.135Z,0.00
2023-04-02T02:20:04.302Z,0.00
2023-04-02T02:21:04.392Z,0.00
2023-04-02T02:22:04.636Z,0.00
2023-04-02T02:23:04.594Z,0.00
2023-04-02T02:24:04.739Z,0.00
2023-04-02T02:25:04.876Z,0.00
2023-04-02T02:26:04.974Z,0.00
2023-04-02T02:27:05.102Z,0.00
2023-04-02T02:28:05.798Z,0.00
2023-04-02T02:29:05.275Z,0.00
2023-04-02T02:30:05.435Z,0.00
2023-04-02T02:31:05.519Z,0.00
2023-04-02T02:32:05.779Z,0.00
2023-04-02T02:33:05.780Z,0.00
2023-04-02T02:34:05.863Z,0.00
2023-04-02T02:35:06.095Z,0.00
2023-04-02T02:36:06.146Z,0.00
2023-04-02T02:37:06.268Z,0.00
2023-04-02T02:38:06.322Z,0.00
2023-04-02T02:39:06.482Z,0.00
2023-04-02T02:40:06.558Z,0.00
2023-04-02T02:41:06.660Z,0.00
2023-04-02T02:42:06.837Z,0.00
2023-04-02T02:43:06.909Z,0.00
2023-04-02T02:44:07.044Z,0.00
2023-04-02T02:45:07.074Z,0.00
2023-04-02T02:46:07.247Z,0.00
2023-04-02T02:47:07.324Z,0.00
2023-04-02T02:48:07.551Z,0.00
2023-04-02T02:49:07.615Z,0.00
2023-04-02T02:50:07.668Z,0.00
2023-04-02T02:51:07.758Z,0.00
2023-04-02T02:52:07.891Z,0.00
2023-04-02T02:53:08.172Z,0.00
2023-04-02T02:54:08.154Z,0.00
2023-04-02T02:55:08.402Z,0.00
2023-04-02T02:56:08.341Z,0.00
2023-04-02T02:57:08.509Z,0.00
2023-04-02T02:58:09.088Z,0.00
2023-04-02T02:59:08.736Z,0.00
2023-04-02T03:00:08.885Z,0.00
2023-04-02T03:01:08.942Z,0.00
2023-04-02T03:02:09.180Z,0.00
2023-04-02T03:03:09.209Z,0.00
2023-04-02T03:04:09.373Z,0.00
2023-04-02T03:05:09.438Z,0.00
2023-04-02T03:06:09.530Z,0.00
2023-04-02T03:07:09.584Z,0.00
2023-04-02T03:08:09.685Z,0.00
2023-04-02T03:09:09.782Z,0.00
2023-04-02T03:10:09.927Z,0.00
2023-04-02T03:11:10.005Z,0.00
2023-04-02T03:12:10.202Z,0.00
2023-04-02T03:13:10.268Z,0.00
2023-04-02T03:14:10.351Z,0.00
2023-04-02T03:15:10.987Z,0.00
2023-04-02T03:16:10.752Z,0.00
2023-04-02T03:17:10.805Z,0.00
2023-04-02T03:18:10.798Z,0.00
2023-04-02T03:19:10.959Z,0.00
2023-04-02T03:20:11.352Z,0.00
2023-04-02T03:21:11.180Z,0.00
2023-04-02T03:22:13.892Z,0.00
2023-04-02T03:23:11.418Z,0.00
2023-04-02T03:24:11.551Z,0.00
2023-04-02T03:25:11.635Z,0.00
2023-04-02T03:26:11.862Z,0.00
2023-04-02T03:27:11.884Z,0.00
2023-04-02T03:28:11.970Z,0.00
2023-04-02T03:29:12.183Z,0.00
2023-04-02T03:30:12.273Z,0.00
2023-04-02T03:31:12.431Z,0.00
2023-04-02T03:32:12.449Z,0.00
2023-04-02T03:33:12.561Z,0.00
2023-04-02T03:34:12.677Z,0.00
2023-04-02T03:35:12.780Z,0.00
2023-04-02T03:36:13.044Z,0.00
2023-04-02T03:37:13.126Z,0.00
2023-04-02T03:38:13.184Z,0.00
2023-04-02T03:39:13.307Z,0.00
2023-04-02T03:40:13.448Z,0.00
2023-04-02T03:41:13.506Z,0.00
2023-04-02T03:42:13.663Z,0.00
2023-04-02T03:43:13.789Z,0.00
2023-04-02T03:44:13.858Z,0.00
2023-04-02T03:45:13.942Z,0.00
2023-04-02T03:46:14.095Z,0.00
2023-04-02T03:47:14.183Z,0.00
2023-04-02T03:48:14.277Z,0.00
2023-04-02T03:49:14.424Z,0.00
2023-04-02T03:50:14.554Z,0.00
2023-04-02T03:51:14.646Z,0.00
2023-04-02T03:52:14.804Z,0.00
2023-04-02T03:53:14.887Z,0.00
2023-04-02T03:54:14.968Z,0.00
2023-04-02T03:55:15.068Z,0.00
2023-04-02T03:56:15.202Z,0.00
2023-04-02T03:57:15.414Z,0.00
2023-04-02T03:58:15.479Z,0.00
2023-04-02T03:59:15.510Z,0.00
2023-04-02T04:00:15.696Z,0.00
2023-04-02T04:01:15.756Z,0.00
2023-04-02T04:02:15.922Z,0.00
2023-04-02T04:03:16.012Z,0.00
2023-04-02T04:04:16.149Z,0.00
2023-04-02T04:05:16.178Z,0.00
2023-04-02T04:06:16.360Z,0.00
2023-04-02T04:07:16.469Z,0.00
2023-04-02T04:08:16.620Z,0.00
2023-04-02T04:09:16.658Z,0.00
2023-04-02T04:10:16.770Z,0.00
2023-04-02T04:11:17.081Z,0.00
2023-04-02T04:12:17.028Z,0.00
2023-04-02T04:13:17.137Z,0.00
2023-04-02T04:14:17.240Z,0.00
2023-04-02T04:15:17.390Z,0.00
2023-04-02T04:16:17.512Z,0.00
2023-04-02T04:17:17.576Z,0.00
2023-04-02T04:18:17.739Z,0.00
2023-04-02T04:19:17.839Z,0.00
2023-04-02T04:20:17.980Z,0.00
2023-04-02T04:21:18.045Z,0.00
2023-04-02T04:22:18.222Z,0.00
2023-04-02T04:23:18.258Z,0.00
2023-04-02T04:24:18.326Z,0.00
2023-04-02T04:25:18.444Z,0.00
2023-04-02T04:26:18.587Z,0.00
2023-04-02T04:27:18.684Z,0.00
2023-04-02T04:28:18.830Z,0.00
2023-04-02T04:29:18.938Z,0.00
2023-04-02T04:30:19.012Z,0.00
2023-04-02T04:31:19.171Z,0.00
2023-04-02T04:32:19.322Z,0.00
2023-04-02T04:33:19.371Z,0.00
2023-04-02T04:34:19.510Z,0.00
2023-04-02T04:35:19.640Z,0.00
2023-04-02T04:36:19.812Z,0.00
2023-04-02T04:37:19.839Z,0.00
2023-04-02T04:38:19.960Z,0.00
2023-04-02T04:39:20.060Z,0.00
2023-04-02T04:40:20.203Z,0.00
2023-04-02T04:41:20.250Z,0.00
2023-04-02T04:42:20.435Z,0.00
2023-04-02T04:43:20.568Z,0.00
2023-04-02T04:44:20.585Z,0.00
2023-04-02T04:45:20.695Z,0.00
2023-04-02T04:46:20.884Z,0.00
2023-04-02T04:47:20.957Z,0.00
2023-04-02T04:48:21.061Z,0.00
2023-04-02T04:49:21.159Z,0.00
2023-04-02T04:50:21.294Z,0.00
2023-04-02T04:51:21.402Z,0.00
2023-04-02T04:52:21.507Z,0.00
2023-04-02T04:53:21.622Z,0.00
2023-04-02T04:54:21.745Z,0.00
2023-04-02T04:55:21.819Z,0.00
2023-04-02T04:56:22.044Z,0.00
2023-04-02T04:57:22.164Z,0.00
2023-04-02T04:58:22.191Z,0.00
2023-04-02T04:59:22.439Z,0.00
2023-04-02T05:00:22.377Z,0.00
2023-04-02T05:01:22.498Z,0.00
2023-04-02T05:02:22.768Z,0.00
2023-04-02T05:03:22.714Z,0.00
2023-04-02T05:04:22.940Z,0.00
2023-04-02T05:05:22.924Z,0.00
2023-04-02T05:06:23.074Z,0.00
2023-04-02T05:07:23.169Z,0.00
2023-04-02T05:08:23.271Z,0.00
2023-04-02T05:09:23.442Z,0.00
2023-04-02T05:10:23.480Z,0.00
2023-04-02T05:11:23.692Z,0.00
2023-04-02T05:12:23.741Z,0.00
2023-04-02T05:13:23.853Z,0.00
2023-04-02T05:14:24.011Z,0.00
2023-04-02T05:15:24.048Z,0.00
2023-04-02T05:16:24.238Z,0.00
2023-04-02T05:17:24.292Z,0.00
2023-04-02T05:18:24.407Z,0.00
2023-04-02T05:19:24.582Z,0.00
2023-04-02T05:20:24.606Z,0.00
2023-04-02T05:21:24.761Z,0.00
2023-04-02T05:22:24.911Z,0.00
2023-04-02T05:23:24.995Z,0.00
2023-04-02T05:24:25.099Z,0.00
2023-04-02T05:25:25.388Z,0.00
2023-04-02T05:26:25.455Z,0.00
2023-04-02T05:27:25.443Z,0.00
2023-04-02T05:28:25.550Z,0.00
2023-04-02T05:29:25.651Z,0.00
2023-04-02T05:30:25.796Z,0.00
2023-04-02T05:31:26.001Z,0.00
2023-04-02T05:32:25.999Z,0.00
2023-04-02T05:33:26.152Z,0.00
2023-04-02T05:34:26.181Z,0.00
2023-04-02T05:35:26.311Z,0.00
2023-04-02T05:36:26.534Z,0.00
2023-04-02T05:37:26.789Z,0.00
2023-04-02T05:38:26.650Z,0.00
2023-04-02T05:39:26.794Z,0.00
2023-04-02T05:40:26.887Z,0.00
2023-04-02T05:41:27.067Z,5.62
2023-04-02T05:42:27.177Z,5.62
2023-04-02T05:43:27.506Z,5.62
2023-04-02T05:44:27.361Z,5.62
2023-04-02T05:45:27.459Z,5.62
2023-04-02T05:46:27.643Z,5.62
2023-04-02T05:47:27.748Z,5.62
2023-04-02T05:48:27.801Z,5.62
2023-04-02T05:49:27.920Z,5.62
2023-04-02T05:50:28.084Z,5.62
2023-04-02T05:51:28.190Z,11.25
2023-04-02T05:52:28.269Z,11.25
2023-04-02T05:53:28.385Z,11.25
2023-04-02T05:54:28.519Z,11.25
2023-04-02T05:55:28.579Z,11.25
2023-04-02T05:56:28.694Z,11.25
2023-04-02T05:57:42.826Z,11.25
2023-04-02T05:58:36.089Z,11.25
2023-04-02T05:59:30.112Z,11.25
2023-04-02T06:00:29.175Z,11.25
2023-04-02T06:01:29.368Z,11.25
2023-04-02T06:02:29.618Z,11.25
2023-04-02T06:03:29.578Z,11.25
2023-04-02T06:04:29.653Z,11.25
2023-04-02T06:05:29.763Z,11.25
2023-04-02T06:06:29.852Z,11.25
2023-04-02T06:07:29.988Z,16.88
2023-04-02T06:08:30.176Z,16.88
2023-04-02T06:09:30.241Z,16.88
2023-04-02T06:10:30.393Z,16.88
2023-04-02T06:11:30.531Z,16.88
2023-04-02T06:12:30.675Z,16.88
2023-04-02T06:13:30.716Z,16.88
2023-04-02T06:14:30.837Z,16.88
2023-04-02T06:15:31.022Z,16.88
2023-04-02T06:16:31.141Z,16.88
2023-04-02T06:17:31.232Z,11.25
2023-04-02T06:18:31.360Z,16.88
2023-04-02T06:19:31.524Z,16.88
2023-04-02T06:20:31.581Z,16.88
2023-04-02T06:21:31.790Z,16.88
2023-04-02T06:22:32.093Z,16.88
2023-04-02T06:23:31.966Z,16.88
2023-04-02T06:24:32.011Z,16.88
2023-04-02T06:25:32.170Z,16.88
2023-04-02T06:26:32.275Z,16.88
2023-04-02T06:27:32.491Z,22.50
2023-04-02T06:28:32.581Z,22.50
2023-04-02T06:29:32.738Z,22.50
2023-04-02T06:30:32.934Z,22.50
2023-04-02T06:31:32.988Z,22.50
2023-04-02T06:32:33.171Z,22.50
2023-04-02T06:33:33.625Z,22.50
2023-04-02T06:34:33.430Z,22.50
2023-04-02T06:35:33.845Z,28.12
2023-04-02T06:36:33.683Z,22.50
2023-04-02T06:37:33.796Z,28.12
2023-04-02T06:38:33.932Z,22.50
2023-04-02T06:39:34.051Z,28.12
2023-04-02T06:40:34.160Z,28.12
2023-04-02T06:41:34.544Z,28.12
2023-04-02T06:42:34.463Z,28.12
2023-04-02T06:43:34.558Z,28.12
2023-04-02T06:44:34.717Z,28.12
2023-04-02T06:45:35.324Z,28.12
2023-04-02T06:46:35.038Z,28.12
2023-04-02T06:47:35.128Z,28.12
2023-04-02T06:48:35.208Z,33.75
2023-04-02T06:49:35.294Z,33.75
2023-04-02T06:50:35.432Z,33.75
2023-04-02T06:51:35.594Z,33.75
2023-04-02T06:52:35.635Z,28.12
2023-04-02T06:53:35.787Z,33.75
2023-04-02T06:54:35.920Z,28.12
2023-04-02T06:55:36.276Z,28.12
2023-04-02T06:56:36.211Z,28.12
2023-04-02T06:57:36.409Z,33.75
2023-04-02T06:58:36.459Z,33.75
2023-04-02T06:59:36.627Z,33.75
2023-04-02T07:00:36.738Z,33.75
2023-04-02T07:01:36.995Z,39.38
2023-04-02T07:02:37.156Z,39.38
2023-04-02T07:03:37.176Z,33.75
2023-04-02T07:04:37.315Z,39.38
2023-04-02T07:05:37.558Z,33.75
2023-04-02T07:06:37.474Z,39.38
2023-04-02T07:07:37.582Z,39.38
2023-04-02T07:08:37.733Z,39.38
2023-04-02T07:09:37.822Z,39.38
2023-04-02T07:10:37.934Z,39.38
2023-04-02T07:11:38.102Z,39.38
2023-04-02T07:12:38.258Z,45.00
2023-04-02T07:13:38.402Z,45.00
2023-04-02T07:14:38.487Z,50.62
2023-04-02T07:15:38.778Z,50.62
2023-04-02T07:16:38.745Z,61.88
2023-04-02T07:17:38.943Z,56.25
2023-04-02T07:18:39.065Z,56.25
2023-04-02T07:19:39.217Z,61.88
2023-04-02T07:20:39.360Z,67.50
2023-04-02T07:21:39.485Z,67.50
2023-04-02T07:22:39.544Z,61.88
2023-04-02T07:23:39.786Z,90.00
2023-04-02T07:24:39.808Z,101.25
2023-04-02T07:25:39.924Z,118.12
2023-04-02T07:26:40.082Z,106.88
2023-04-02T07:27:40.220Z,123.75
2023-04-02T07:28:40.497Z,140.62
2023-04-02T07:29:40.433Z,118.12
2023-04-02T07:30:40.734Z,95.62
2023-04-02T07:31:40.766Z,90.00
2023-04-02T07:32:40.854Z,73.12
2023-04-02T07:33:42.230Z,61.88
2023-04-02T07:34:41.124Z,67.50
2023-04-02T07:35:41.293Z,67.50
2023-04-02T07:36:41.440Z,67.50
2023-04-02T07:37:41.537Z,73.12
2023-04-02T07:38:41.709Z,61.88
2023-04-02T07:39:41.869Z,61.88
2023-04-02T07:40:42.034Z,61.88
2023-04-02T07:41:42.085Z,67.50
2023-04-02T07:42:42.175Z,78.75
2023-04-02T07:43:42.321Z,84.38
2023-04-02T07:44:42.472Z,90.00
2023-04-02T07:45:42.629Z,95.62
2023-04-02T07:46:42.801Z,123.75
2023-04-02T07:47:42.926Z,118.12
2023-04-02T07:48:42.989Z,106.88
2023-04-02T07:49:43.115Z,106.88
2023-04-02T07:50:43.317Z,129.38
2023-04-02T07:51:43.380Z,118.12
2023-04-02T07:52:43.509Z,123.75
2023-04-02T07:53:43.624Z,112.50
2023-04-02T07:54:43.776Z,101.25
2023-04-02T07:55:43.872Z,101.25
2023-04-02T07:56:44.036Z,106.88
2023-04-02T07:57:46.388Z,112.50
2023-04-02T07:58:44.236Z,118.12
2023-04-02T07:59:44.417Z,118.12
2023-04-02T08:00:44.534Z,118.12
2023-04-02T08:01:44.756Z,112.50
2023-04-02T08:02:44.779Z,106.88
2023-04-02T08:03:44.980Z,112.50
2023-04-02T08:04:45.164Z,118.12
2023-04-02T08:05:45.163Z,123.75
2023-04-02T08:06:45.359Z,123.75
2023-04-02T08:07:45.492Z,135.00
2023-04-02T08:08:45.590Z,140.62
2023-04-02T08:09:45.779Z,135.00
2023-04-02T08:10:45.793Z,135.00
2023-04-02T08:11:46.017Z,135.00
2023-04-02T08:12:46.144Z,129.38
2023-04-02T08:13:46.179Z,123.75
2023-04-02T08:14:46.327Z,135.00
2023-04-02T08:15:46.506Z,118.12
2023-04-02T08:16:46.754Z,112.50
2023-04-02T08:17:46.824Z,95.62
2023-04-02T08:18:46.909Z,101.25
2023-04-02T08:19:54.687Z,95.62
2023-04-02T08:20:48.340Z,112.50
2023-04-02T08:21:47.424Z,135.00
2023-04-02T08:22:47.465Z,151.88
2023-04-02T08:23:47.602Z,146.25
2023-04-02T08:24:47.640Z,140.62
2023-04-02T08:25:47.776Z,129.38
2023-04-02T08:26:47.965Z,112.50
2023-04-02T08:27:48.208Z,112.50
2023-04-02T08:28:48.195Z,106.88
2023-04-02T08:29:48.422Z,112.50
2023-04-02T08:30:48.638Z,106.88
2023-04-02T08:31:48.717Z,112.50
2023-04-02T08:32:48.928Z,118.12
2023-04-02T08:33:48.928Z,118.12
2023-04-02T08:34:49.084Z,123.75
2023-04-02T08:35:49.161Z,112.50
2023-04-02T08:36:49.233Z,118.12
2023-04-02T08:37:49.411Z,123.75
2023-04-02T08:38:49.478Z,129.38
2023-04-02T08:39:49.611Z,118.12
2023-04-02T08:40:49.902Z,118.12
2023-04-02T08:41:49.822Z,118.12
2023-04-02T08:42:50.114Z,123.75
2023-04-02T08:43:50.112Z,123.75
2023-04-02T08:44:50.222Z,135.00
2023-04-02T08:45:50.419Z,135.00
2023-04-02T08:46:50.584Z,129.38
2023-04-02T08:47:50.655Z,123.75
2023-04-02T08:48:50.795Z,135.00
2023-04-02T08:49:51.135Z,129.38
2023-04-02T08:50:50.980Z,146.25
2023-04-02T08:51:51.145Z,146.25
2023-04-02T08:52:51.226Z,146.25
2023-04-02T08:53:51.367Z,157.50
2023-04-02T08:54:51.530Z,157.50
2023-04-02T08:55:51.662Z,157.50
2023-04-02T08:56:51.974Z,163.12
2023-04-02T08:57:51.931Z,202.50
2023-04-02T08:58:52.180Z,168.75
2023-04-02T08:59:52.206Z,174.38
2023-04-02T09:00:52.388Z,163.12
2023-04-02T09:01:52.591Z,151.88
2023-04-02T09:02:52.641Z,157.50
2023-04-02T09:03:52.761Z,151.88
2023-04-02T09:04:53.011Z,163.12
2023-04-02T09:05:53.016Z,151.88
2023-04-02T09:06:53.120Z,163.12
2023-04-02T09:07:53.313Z,157.50
2023-04-02T09:08:53.410Z,168.75
2023-04-02T09:09:53.513Z,151.88
2023-04-02T09:10:53.662Z,157.50
2023-04-02T09:11:53.877Z,168.75
2023-04-02T09:12:53.992Z,174.38
2023-04-02T09:13:54.126Z,191.25
2023-04-02T09:14:54.250Z,191.25
2023-04-02T09:15:54.345Z,196.88
2023-04-02T09:16:54.487Z,185.62
2023-04-02T09:17:55.761Z,157.50
2023-04-02T09:18:54.799Z,146.25
2023-04-02T09:19:54.901Z,135.00
2023-04-02T09:20:55.029Z,129.38
2023-04-02T09:21:55.116Z,146.25
2023-04-02T09:22:55.255Z,140.62
2023-04-02T09:23:55.531Z,146.25
2023-04-02T09:24:55.673Z,151.88
2023-04-02T09:26:04.242Z,157.50
2023-04-02T09:26:56.833Z,185.62
2023-04-02T09:27:55.944Z,225.00
2023-04-02T09:28:56.117Z,208.12
2023-04-02T09:29:56.402Z,208.12
2023-04-02T09:30:56.340Z,225.00
2023-04-02T09:31:56.651Z,264.38
2023-04-02T09:32:56.612Z,270.00
2023-04-02T09:33:56.740Z,275.62
2023-04-02T09:34:57.061Z,258.75
2023-04-02T09:35:57.132Z,264.38
2023-04-02T09:36:57.188Z,275.62
2023-04-02T09:37:57.342Z,298.12
2023-04-02T09:38:57.413Z,303.75
2023-04-02T09:39:57.609Z,303.75
2023-04-02T09:40:57.695Z,298.12
2023-04-02T09:42:05.387Z,286.88
2023-04-02T09:42:59.056Z,286.88
2023-04-02T09:43:58.185Z,270.00
2023-04-02T09:44:58.250Z,258.75
2023-04-02T09:45:58.409Z,270.00
2023-04-02T09:46:58.571Z,270.00
2023-04-02T09:47:58.642Z,281.25
2023-04-02T09:48:58.758Z,281.25
2023-04-02T09:49:58.955Z,270.00
2023-04-02T09:50:59.024Z,247.50
2023-04-02T09:51:59.180Z,213.75
2023-04-02T09:52:59.242Z,208.12
2023-04-02T09:53:59.428Z,196.88
2023-04-02T09:54:59.577Z,202.50
2023-04-02T09:55:59.659Z,202.50
2023-04-02T09:56:59.840Z,208.12
2023-04-02T09:58:01.931Z,191.25
2023-04-02T09:59:00.110Z,202.50
2023-04-02T10:00:00.288Z,191.25
2023-04-02T10:01:00.388Z,191.25
2023-04-02T10:02:00.518Z,202.50
2023-04-02T10:03:00.670Z,196.88
2023-04-02T10:04:00.862Z,191.25
2023-04-02T10:05:00.871Z,213.75
2023-04-02T10:06:00.968Z,230.62
2023-04-02T10:07:01.085Z,253.12
2023-04-02T10:08:01.299Z,270.00
2023-04-02T10:09:01.324Z,230.62
2023-04-02T10:10:01.437Z,253.12
2023-04-02T10:11:01.554Z,247.50
2023-04-02T10:12:01.674Z,264.38
2023-04-02T10:13:01.880Z,275.62
2023-04-02T10:14:01.983Z,286.88
2023-04-02T10:15:02.125Z,292.50
2023-04-02T10:16:02.233Z,258.75
2023-04-02T10:17:02.371Z,270.00
2023-04-02T10:18:02.652Z,258.75
2023-04-02T10:19:02.658Z,253.12
2023-04-02T10:20:02.823Z,275.62
2023-04-02T10:21:02.871Z,270.00
2023-04-02T10:22:03.015Z,286.88
2023-04-02T10:23:04.901Z,253.12
2023-04-02T10:24:03.355Z,258.75
2023-04-02T10:25:03.475Z,281.25
2023-04-02T10:26:03.611Z,286.88
2023-04-02T10:27:03.853Z,298.12
2023-04-02T10:28:03.833Z,303.75
2023-04-02T10:29:06.752Z,348.75
2023-04-02T10:30:04.140Z,348.75
2023-04-02T10:31:04.355Z,348.75
2023-04-02T10:32:04.435Z,337.50
2023-04-02T10:33:04.525Z,331.88
2023-04-02T10:34:04.781Z,326.25
2023-04-02T10:35:04.819Z,365.62
2023-04-02T10:36:04.938Z,365.62
2023-04-02T10:37:05.104Z,376.88
2023-04-02T10:38:05.206Z,405.00
2023-04-02T10:39:05.291Z,382.50
2023-04-02T10:40:05.464Z,405.00
2023-04-02T10:41:05.608Z,450.00
2023-04-02T10:42:05.738Z,421.88
2023-04-02T10:43:05.818Z,393.75
2023-04-02T10:44:16.768Z,382.50
2023-04-02T10:45:07.062Z,343.12
2023-04-02T10:46:06.324Z,320.62
2023-04-02T10:47:06.327Z,326.25
2023-04-02T10:48:06.555Z,337.50
2023-04-02T10:49:06.682Z,343.12
2023-04-02T10:50:06.831Z,331.88
2023-04-02T10:51:06.889Z,315.00
2023-04-02T10:52:07.048Z,315.00
2023-04-02T10:53:07.159Z,309.38
2023-04-02T10:54:07.187Z,303.75
2023-04-02T10:55:07.303Z,315.00
2023-04-02T10:56:07.492Z,315.00
2023-04-02T10:57:07.664Z,303.75
2023-04-02T10:58:07.739Z,326.25
2023-04-02T10:59:07.863Z,348.75
2023-04-02T11:00:07.984Z,354.38
2023-04-02T11:01:08.260Z,365.62
2023-04-02T11:02:08.251Z,376.88
2023-04-02T11:03:08.421Z,382.50
2023-04-02T11:04:08.499Z,393.75
2023-04-02T11:05:08.601Z,416.25
2023-04-02T11:06:09.727Z,405.00
2023-04-02T11:07:14.331Z,405.00
2023-04-02T11:08:10.144Z,405.00
2023-04-02T11:09:09.131Z,371.25
2023-04-02T11:10:09.266Z,337.50
2023-04-02T11:11:09.464Z,337.50
2023-04-02T11:12:09.507Z,326.25
2023-04-02T11:13:09.690Z,326.25
2023-04-02T11:14:09.799Z,303.75
2023-04-02T11:15:09.895Z,326.25
2023-04-02T11:16:10.071Z,360.00
2023-04-02T11:17:10.143Z,376.88
2023-04-02T11:18:10.260Z,376.88
2023-04-02T11:19:10.467Z,365.62
2023-04-02T11:20:10.588Z,410.62
2023-04-02T11:21:10.666Z,427.50
2023-04-02T11:22:10.895Z,410.62
2023-04-02T11:23:10.958Z,393.75
2023-04-02T11:24:11.049Z,433.12
2023-04-02T11:25:11.155Z,478.12
2023-04-02T11:26:11.293Z,376.88
2023-04-02T11:27:11.477Z,388.12
2023-04-02T11:28:11.540Z,393.75
2023-04-02T11:29:11.669Z,337.50
2023-04-02T11:30:12.005Z,421.88
2023-04-02T11:31:12.015Z,427.50
2023-04-02T11:32:12.072Z,376.88
2023-04-02T11:33:12.195Z,348.75
2023-04-02T11:34:12.471Z,303.75
2023-04-02T11:35:12.500Z,275.62
2023-04-02T11:36:12.740Z,264.38
2023-04-02T11:37:12.737Z,275.62
2023-04-02T11:38:12.973Z,275.62
2023-04-02T11:39:17.550Z,281.25
2023-04-02T11:40:13.284Z,298.12
2023-04-02T11:41:13.325Z,281.25
2023-04-02T11:42:13.564Z,286.88
2023-04-02T11:43:13.564Z,286.88
2023-04-02T11:44:13.676Z,309.38
2023-04-02T11:45:13.779Z,315.00
2023-04-02T11:46:13.973Z,331.88
2023-04-02T11:47:14.149Z,326.25
2023-04-02T11:48:14.215Z,315.00
2023-04-02T11:49:14.321Z,343.12
2023-04-02T11:50:14.486Z,320.62
2023-04-02T11:51:14.928Z,281.25
2023-04-02T11:52:14.745Z,270.00
2023-04-02T11:53:14.839Z,309.38
2023-04-02T11:54:15.199Z,309.38
2023-04-02T11:55:15.856Z,309.38
2023-04-02T11:56:15.271Z,303.75
2023-04-02T11:57:15.369Z,315.00
2023-04-02T11:58:15.577Z,292.50
2023-04-02T11:59:15.619Z,303.75
2023-04-02T12:00:17.899Z,326.25
2023-04-02T12:01:15.896Z,354.38
2023-04-02T12:02:16.041Z,348.75
2023-04-02T12:03:16.247Z,354.38
2023-04-02T12:04:16.298Z,337.50
2023-04-02T12:05:16.648Z,348.75
2023-04-02T12:06:17.494Z,337.50
2023-04-02T12:07:16.697Z,343.12
2023-04-02T12:08:16.969Z,354.38
2023-04-02T12:09:16.986Z,360.00
2023-04-02T12:10:17.100Z,405.00
2023-04-02T12:11:17.275Z,376.88
2023-04-02T12:12:17.438Z,365.62
2023-04-02T12:13:17.535Z,360.00
2023-04-02T12:14:17.580Z,348.75
2023-04-02T12:15:17.742Z,354.38
2023-04-02T12:16:17.920Z,343.12
2023-04-02T12:17:18.099Z,343.12
2023-04-02T12:18:18.157Z,343.12
2023-04-02T12:19:18.299Z,337.50
2023-04-02T12:20:18.380Z,343.12
2023-04-02T12:21:18.554Z,365.62
2023-04-02T12:22:18.646Z,376.88
2023-04-02T12:23:18.797Z,393.75
2023-04-02T12:24:18.980Z,410.62
2023-04-02T12:25:19.034Z,405.00
2023-04-02T12:26:19.833Z,410.62
2023-04-02T12:27:19.310Z,433.12
2023-04-02T12:28:19.405Z,438.75
2023-04-02T12:29:19.518Z,455.62
2023-04-02T12:30:19.666Z,444.38
2023-04-02T12:31:19.837Z,444.38
2023-04-02T12:32:19.898Z,478.12
2023-04-02T12:33:20.077Z,450.00
2023-04-02T12:34:20.215Z,416.25
2023-04-02T12:35:20.306Z,371.25
2023-04-02T12:36:20.450Z,433.12
2023-04-02T12:37:20.588Z,416.25
2023-04-02T12:38:20.763Z,438.75
2023-04-02T12:39:20.813Z,517.50
2023-04-02T12:40:20.962Z,506.25
2023-04-02T12:41:21.076Z,506.25
2023-04-02T12:42:21.155Z,472.50
2023-04-02T12:43:21.290Z,433.12
2023-04-02T12:44:21.462Z,416.25
2023-04-02T12:45:21.563Z,427.50
2023-04-02T12:46:21.646Z,483.75
2023-04-02T12:47:21.825Z,416.25
2023-04-02T12:48:21.972Z,360.00
2023-04-02T12:49:22.022Z,371.25
2023-04-02T12:50:22.177Z,376.88
2023-04-02T12:51:22.343Z,405.00
2023-04-02T12:52:22.478Z,360.00
2023-04-02T12:53:22.549Z,365.62
2023-04-02T12:54:22.745Z,343.12
2023-04-02T12:55:22.828Z,315.00